createdAt,value
2015-11-28T00:02:01.970Z,0.9
2015-11-28T00:03:03.738Z,0.9
2015-11-28T00:04:06.069Z,0.9
2015-11-28T00:05:08.400Z,0.9
2015-11-28T00:06:10.731Z,0.9
2015-11-28T00:07:13.062Z,0.9
2015-11-28T00:08:15.408Z,0.9
2015-11-28T00:09:17.723Z,0.8
2015-11-28T00:11:22.386Z,0.9
2015-11-28T00:13:26.281Z,0.8
2015-11-28T00:14:28.612Z,0.8
2015-11-28T00:16:32.758Z,0.8
2015-11-28T00:17:34.839Z,0.8
2015-11-28T00:18:36.920Z,0.8
2015-11-28T00:19:38.985Z,0.8
2015-11-28T00:20:41.067Z,0.8
2015-11-28T00:21:43.131Z,0.7
2015-11-28T00:22:45.259Z,0.7
2015-11-28T00:23:47.027Z,0.7
2015-11-28T00:25:51.189Z,0.7
2015-11-28T00:26:53.270Z,0.7
2015-11-28T00:27:55.085Z,0.7
2015-11-28T00:28:57.151Z,0.7
2015-11-28T00:29:59.247Z,0.7
2015-11-28T00:31:01.063Z,0.7
2015-11-28T00:32:02.894Z,0.7
2015-11-28T00:33:04.771Z,0.7
2015-11-28T00:35:08.339Z,0.7
2015-11-28T00:36:10.170Z,0.7
2015-11-28T00:37:11.969Z,0.7
2015-11-28T00:38:13.800Z,0.6
2015-11-28T00:39:15.616Z,0.7
2015-11-28T00:40:17.430Z,0.6
2015-11-28T00:41:19.261Z,0.6
2015-11-28T00:42:21.077Z,0.6
2015-11-28T00:43:22.955Z,0.6
2015-11-28T00:44:24.707Z,0.6
2015-11-28T00:45:26.554Z,0.6
2015-11-28T00:46:28.354Z,0.6
2015-11-28T00:47:30.169Z,0.6
2015-11-28T00:48:31.985Z,0.6
2015-11-28T00:49:33.816Z,0.6
2015-11-28T00:50:35.630Z,0.6
2015-11-28T00:51:37.446Z,0.6
2015-11-28T00:52:39.261Z,0.6
2015-11-28T00:53:41.138Z,0.5
2015-11-28T00:54:42.907Z,0.5
2015-11-28T00:55:44.722Z,0.5
2015-11-28T00:56:46.538Z,0.5
2015-11-28T00:59:52.015Z,0.5
2015-11-28T01:00:53.846Z,0.5
2015-11-28T01:01:55.645Z,0.5
2015-11-28T01:02:57.461Z,0.5
2015-11-28T01:03:59.354Z,0.5
2015-11-28T01:05:01.107Z,0.5
2015-11-28T01:06:02.938Z,0.5
2015-11-28T01:08:06.552Z,0.5
2015-11-28T01:09:08.399Z,0.5
2015-11-28T01:10:10.199Z,0.5
2015-11-28T01:11:12.030Z,0.5
2015-11-28T01:12:13.844Z,0.5
2015-11-28T01:13:15.675Z,0.5
2015-11-28T01:14:17.537Z,0.5
2015-11-28T01:15:19.306Z,0.5
2015-11-28T01:16:21.137Z,0.5
2015-11-28T01:17:22.937Z,0.4
2015-11-28T01:18:24.768Z,0.5
2015-11-28T01:19:26.598Z,0.4
2015-11-28T01:20:28.398Z,0.4
2015-11-28T01:21:30.229Z,0.4
2015-11-28T01:22:32.060Z,0.4
2015-11-28T01:23:33.890Z,0.4
2015-11-28T01:24:35.768Z,0.4
2015-11-28T01:25:37.505Z,0.4
2015-11-28T01:26:39.336Z,0.4
2015-11-28T01:27:41.151Z,0.4
2015-11-28T01:28:42.967Z,0.4
2015-11-28T01:29:44.782Z,0.4
2015-11-28T01:30:46.612Z,0.4
2015-11-28T01:31:48.428Z,0.3
2015-11-28T01:33:52.074Z,0.3
2015-11-28T01:34:53.952Z,0.3
2015-11-28T01:35:55.720Z,0.3
2015-11-28T01:36:57.535Z,0.3
2015-11-28T01:37:59.367Z,0.3
2015-11-28T01:39:01.182Z,0.3
2015-11-28T01:40:03.029Z,0.3
2015-11-28T01:41:04.813Z,0.3
2015-11-28T01:42:06.643Z,0.3
2015-11-28T01:43:08.474Z,0.3
2015-11-28T01:44:10.305Z,0.3
2015-11-28T01:45:12.168Z,0.3
2015-11-28T01:46:13.935Z,0.3
2015-11-28T01:47:15.767Z,0.3
2015-11-28T01:48:17.565Z,0.3
2015-11-28T01:49:19.413Z,0.3
2015-11-28T01:50:21.213Z,0.3
2015-11-28T01:51:23.028Z,0.3
2015-11-28T01:52:24.858Z,0.3
2015-11-28T01:53:26.673Z,0.3
2015-11-28T01:54:28.488Z,0.3
2015-11-28T01:55:30.366Z,0.2
2015-11-28T01:56:32.134Z,0.3
2015-11-28T01:57:33.965Z,0.2
2015-11-28T01:58:35.781Z,0.3
2015-11-28T01:59:37.595Z,0.3
2015-11-28T02:00:39.442Z,0.3
2015-11-28T02:01:41.242Z,0.3
2015-11-28T02:02:43.073Z,0.3
2015-11-28T02:03:44.889Z,0.2
2015-11-28T02:04:46.719Z,0.2
2015-11-28T02:05:48.581Z,0.3
2015-11-28T02:07:52.181Z,0.3
2015-11-28T02:08:54.011Z,0.2
2015-11-28T02:09:55.828Z,0.2
2015-11-28T02:10:57.658Z,0.3
2015-11-28T02:11:59.473Z,0.3
2015-11-28T02:13:01.272Z,0.3
2015-11-28T02:15:04.935Z,0.2
2015-11-28T02:17:08.565Z,0.2
2015-11-28T02:18:10.395Z,0.2
2015-11-28T02:19:12.196Z,0.2
2015-11-28T02:20:14.011Z,0.2
2015-11-28T02:21:15.842Z,0.2
2015-11-28T02:22:17.657Z,0.2
2015-11-28T02:23:19.488Z,0.2
2015-11-28T02:25:23.119Z,0.2
2015-11-28T02:26:24.997Z,0.2
2015-11-28T02:27:26.750Z,0.2
2015-11-28T02:28:28.569Z,0.2
2015-11-28T02:29:30.416Z,0.2
2015-11-28T02:30:32.200Z,0.2
2015-11-28T02:31:34.030Z,0.2
2015-11-28T02:32:35.846Z,0.2
2015-11-28T02:33:37.661Z,0.2
2015-11-28T02:34:39.477Z,0.2
2015-11-28T02:35:41.307Z,0.2
2015-11-28T02:36:43.200Z,0.2
2015-11-28T02:37:44.938Z,0.2
2015-11-28T02:38:46.753Z,0.2
2015-11-28T02:39:48.584Z,0.2
2015-11-28T02:41:52.214Z,0.2
2015-11-28T02:42:54.061Z,0.2
2015-11-28T02:43:55.844Z,0.1
2015-11-28T02:44:57.676Z,0.1
2015-11-28T02:45:59.491Z,0.1
2015-11-28T02:47:01.384Z,0.1
2015-11-28T02:48:03.138Z,0.1
2015-11-28T02:49:04.968Z,0.1
2015-11-28T02:51:08.583Z,0.1
2015-11-28T02:52:10.414Z,0.1
2015-11-28T02:53:12.229Z,0.1
2015-11-28T02:54:14.046Z,0.1
2015-11-28T02:55:15.862Z,0.1
2015-11-28T02:56:17.693Z,0.1
2015-11-28T02:57:19.571Z,0.1
2015-11-28T02:58:21.323Z,0.1
2015-11-28T02:59:23.154Z,0.1
2015-11-28T03:00:24.969Z,0.1
2015-11-28T03:02:28.615Z,0.1
2015-11-28T03:04:32.246Z,0.1
2015-11-28T03:05:34.062Z,0.1
2015-11-28T03:06:35.877Z,0.1
2015-11-28T03:07:37.754Z,0.1
2015-11-28T03:08:39.523Z,0.1
2015-11-28T03:09:41.354Z,0.1
2015-11-28T03:10:43.168Z,0.1
2015-11-28T03:11:44.999Z,0.1
2015-11-28T03:12:46.815Z,0.1
2015-11-28T03:14:50.446Z,0.1
2015-11-28T03:15:52.276Z,0
2015-11-28T03:16:54.092Z,0
2015-11-28T03:17:55.970Z,0
2015-11-28T03:19:59.569Z,0
2015-11-28T03:21:01.384Z,0
2015-11-28T03:22:03.199Z,0
2015-11-28T03:23:05.030Z,0
2015-11-28T03:25:08.660Z,0
2015-11-28T03:26:10.476Z,0
2015-11-28T03:27:12.291Z,0
2015-11-28T03:28:14.168Z,0
2015-11-28T03:29:15.937Z,0
2015-11-28T03:30:17.768Z,0
2015-11-28T03:31:19.568Z,0
2015-11-28T03:32:21.399Z,0
2015-11-28T03:33:23.245Z,0
2015-11-28T03:34:25.045Z,0
2015-11-28T03:36:28.425Z,0
2015-11-28T03:37:30.240Z,0
2015-11-28T03:38:32.118Z,0
2015-11-28T03:39:33.886Z,0
2015-11-28T03:40:35.451Z,0
2015-11-28T03:41:37.033Z,0
2015-11-28T03:42:38.567Z,0.1
2015-11-28T03:43:40.164Z,0
2015-11-28T03:44:41.448Z,0.1
2015-11-28T03:45:42.762Z,0.1
2015-11-28T03:46:44.047Z,0.1
2015-11-28T03:49:48.476Z,0.1
2015-11-28T03:51:51.088Z,0.1
2015-11-28T03:52:52.386Z,0.1
2015-11-28T03:53:53.670Z,0.1
2015-11-28T03:54:54.970Z,0.1
2015-11-28T03:56:57.572Z,0.1
2015-11-28T03:57:58.850Z,0.1
2015-11-28T03:59:00.207Z,0.1
2015-11-28T04:00:01.969Z,0.1
2015-11-28T04:01:03.279Z,0.1
2015-11-28T04:02:04.574Z,0.1
2015-11-28T04:03:05.888Z,0.1
2015-11-28T04:04:07.201Z,0.2
2015-11-28T04:05:08.499Z,0.2
2015-11-28T04:06:09.813Z,0.2
2015-11-28T04:07:11.112Z,0.2
2015-11-28T04:08:12.441Z,0.2
2015-11-28T04:09:13.802Z,0.2
2015-11-28T04:10:15.554Z,0.2
2015-11-28T04:11:16.854Z,0.2
2015-11-28T04:12:18.184Z,0.2
2015-11-28T04:13:19.499Z,0.2
2015-11-28T04:14:20.783Z,0.2
2015-11-28T04:16:23.396Z,0.2
2015-11-28T04:19:27.389Z,0.2
2015-11-28T04:20:29.142Z,0.3
2015-11-28T04:21:30.440Z,0.3
2015-11-28T04:24:34.371Z,0.3
2015-11-28T04:25:35.701Z,0.3
2015-11-28T04:26:37.002Z,0.3
2015-11-28T04:27:38.301Z,0.3
2015-11-28T04:28:39.632Z,0.3
2015-11-28T04:29:40.979Z,0.3
2015-11-28T04:30:42.732Z,0.3
2015-11-28T04:31:44.063Z,0.3
2015-11-28T04:32:45.378Z,0.3
2015-11-28T04:33:46.662Z,0.3
2015-11-28T04:35:49.292Z,0.3
2015-11-28T04:37:51.911Z,0.3
2015-11-28T04:38:53.195Z,0.3
2015-11-28T04:39:54.572Z,0.3
2015-11-28T04:40:56.341Z,0.3
2015-11-28T04:41:57.641Z,0.3
2015-11-28T04:42:58.956Z,0.3
2015-11-28T04:44:00.522Z,0.3
2015-11-28T04:45:01.821Z,0.3
2015-11-28T04:46:03.153Z,0.3
2015-11-28T04:47:04.452Z,0.3
2015-11-28T04:48:05.736Z,0.3
2015-11-28T04:49:07.051Z,0.3
2015-11-28T04:50:08.429Z,0.3
2015-11-28T04:51:10.197Z,0.3
2015-11-28T04:52:11.512Z,0.4
2015-11-28T04:53:12.796Z,0.4
2015-11-28T04:54:14.143Z,0.4
2015-11-28T04:55:15.411Z,0.4
2015-11-28T04:56:16.757Z,0.4
2015-11-28T04:57:18.026Z,0.4
2015-11-28T04:58:19.341Z,0.4
2015-11-28T04:59:20.672Z,0.4
2015-11-28T05:00:22.035Z,0.4
2015-11-28T05:01:23.772Z,0.4
2015-11-28T05:02:25.118Z,0.4
2015-11-28T05:03:26.402Z,0.4
2015-11-28T05:04:27.702Z,0.4
2015-11-28T05:05:29.032Z,0.4
2015-11-28T05:06:30.348Z,0.4
2015-11-28T05:07:31.632Z,0.5
2015-11-28T05:08:32.932Z,0.5
2015-11-28T05:09:34.246Z,0.5
2015-11-28T05:10:35.640Z,0.5
2015-11-28T05:11:37.408Z,0.5
2015-11-28T05:12:38.708Z,0.5
2015-11-28T05:14:41.307Z,0.5
2015-11-28T05:16:43.921Z,0.5
2015-11-28T05:17:45.253Z,0.5
2015-11-28T05:18:46.537Z,0.5
2015-11-28T05:19:47.852Z,0.5
2015-11-28T05:21:50.998Z,0.5
2015-11-28T05:22:52.298Z,0.6
2015-11-28T05:23:53.629Z,0.5
2015-11-28T05:24:54.928Z,0.5
2015-11-28T05:25:56.229Z,0.5
2015-11-28T05:26:57.559Z,0.5
2015-11-28T05:27:58.843Z,0.5
2015-11-28T05:29:00.173Z,0.6
2015-11-28T05:30:01.474Z,0.5
2015-11-28T05:31:02.867Z,0.6
2015-11-28T05:32:04.620Z,0.6
2015-11-28T05:33:05.919Z,0.6
2015-11-28T05:34:07.234Z,0.6
2015-11-28T05:35:08.551Z,0.6
2015-11-28T05:37:11.164Z,0.6
2015-11-28T05:38:12.496Z,0.6
2015-11-28T05:39:13.811Z,0.6
2015-11-28T05:40:15.110Z,0.6
2015-11-28T05:41:16.457Z,0.6
2015-11-28T05:42:18.225Z,0.6
2015-11-28T05:43:19.540Z,0.6
2015-11-28T05:44:20.856Z,0.6
2015-11-28T05:45:22.171Z,0.6
2015-11-28T05:46:23.470Z,0.6
2015-11-28T05:47:24.786Z,0.6
2015-11-28T05:49:27.401Z,0.6
2015-11-28T05:51:30.078Z,0.6
2015-11-28T05:52:31.862Z,0.6
2015-11-28T05:53:33.162Z,0.6
2015-11-28T05:54:34.478Z,0.6
2015-11-28T05:55:35.762Z,0.6
2015-11-28T05:56:37.076Z,0.6
2015-11-28T05:57:38.406Z,0.6
2015-11-28T05:58:39.691Z,0.6
2015-11-28T05:59:41.022Z,0.6
2015-11-28T06:00:42.306Z,0.6
2015-11-28T06:01:43.684Z,0.6
2015-11-28T06:02:45.436Z,0.7
2015-11-28T06:05:49.383Z,0.6
2015-11-28T06:06:50.681Z,0.7
2015-11-28T06:07:51.997Z,0.6
2015-11-28T06:10:55.927Z,0.7
2015-11-28T06:11:57.305Z,0.7
2015-11-28T06:12:59.073Z,0.6
2015-11-28T06:14:00.357Z,0.7
2015-11-28T06:15:01.673Z,0.7
2015-11-28T06:16:02.988Z,0.7
2015-11-28T06:17:04.303Z,0.7
2015-11-28T06:18:05.602Z,0.7
2015-11-28T06:19:06.918Z,0.7
2015-11-28T06:20:08.217Z,0.7
2015-11-28T06:22:10.894Z,0.7
2015-11-28T06:23:12.663Z,0.7
2015-11-28T06:24:13.963Z,0.7
2015-11-28T06:25:15.278Z,0.7
2015-11-28T06:26:16.578Z,0.7
2015-11-28T06:27:17.894Z,0.7
2015-11-28T06:28:19.208Z,0.7
2015-11-28T06:29:20.539Z,0.7
2015-11-28T06:31:23.138Z,0.7
2015-11-28T06:32:24.501Z,0.7
2015-11-28T06:33:26.269Z,0.7
2015-11-28T06:34:27.616Z,0.7
2015-11-28T06:35:28.883Z,0.7
2015-11-28T06:36:30.215Z,0.7
2015-11-28T06:37:31.499Z,0.7
2015-11-28T06:38:32.830Z,0.7
2015-11-28T06:39:34.129Z,0.7
2015-11-28T06:40:35.429Z,0.7
2015-11-28T06:41:36.744Z,0.7
2015-11-28T06:42:38.152Z,0.7
2015-11-28T06:43:39.875Z,0.7
2015-11-28T06:44:41.190Z,0.7
2015-11-28T06:45:42.490Z,0.7
2015-11-28T06:46:43.805Z,0.7
2015-11-28T06:47:45.121Z,0.7
2015-11-28T06:48:46.419Z,0.7
2015-11-28T06:49:47.735Z,0.7
2015-11-28T06:50:49.049Z,0.7
2015-11-28T06:51:50.350Z,0.7
2015-11-28T06:52:51.743Z,0.7
2015-11-28T06:53:53.480Z,0.7
2015-11-28T06:54:54.810Z,0.7
2015-11-28T06:55:56.110Z,0.7
2015-11-28T06:56:57.426Z,0.7
2015-11-28T06:57:58.726Z,0.7
2015-11-28T06:59:00.057Z,0.7
2015-11-28T07:00:01.372Z,0.7
2015-11-28T07:01:02.687Z,0.7
2015-11-28T07:02:03.971Z,0.7
2015-11-28T07:03:05.348Z,0.7
2015-11-28T07:04:07.101Z,0.7
2015-11-28T07:05:08.417Z,0.7
2015-11-28T07:06:09.732Z,0.7
2015-11-28T07:07:11.047Z,0.7
2015-11-28T07:09:13.677Z,0.7
2015-11-28T07:10:14.961Z,0.7
2015-11-28T07:11:16.276Z,0.7
2015-11-28T07:12:17.591Z,0.7
2015-11-28T07:13:18.970Z,0.7
2015-11-28T07:14:20.723Z,0.7
2015-11-28T07:15:22.022Z,0.7
2015-11-28T07:16:23.338Z,0.7
2015-11-28T07:17:24.637Z,0.7
2015-11-28T07:18:25.968Z,0.7
2015-11-28T07:20:28.566Z,0.7
2015-11-28T07:21:29.913Z,0.6
2015-11-28T07:22:31.196Z,0.6
2015-11-28T07:23:32.558Z,0.7
2015-11-28T07:24:34.327Z,0.7
2015-11-28T07:25:35.641Z,0.6
2015-11-28T07:26:36.943Z,0.7
2015-11-28T07:27:38.259Z,0.6
2015-11-28T07:29:40.871Z,0.6
2015-11-28T07:30:42.187Z,0.6
2015-11-28T07:33:46.195Z,0.6
2015-11-28T07:34:47.934Z,0.6
2015-11-28T07:35:49.015Z,0.6
2015-11-28T07:36:50.315Z,0.6
2015-11-28T07:37:51.630Z,0.6
2015-11-28T07:38:52.914Z,0.5
2015-11-28T07:39:54.229Z,0.5
2015-11-28T07:40:55.545Z,0.5
2015-11-28T07:41:56.844Z,0.5
2015-11-28T07:42:58.159Z,0.5
2015-11-28T07:43:59.521Z,0.5
2015-11-28T07:45:01.289Z,0.5
2015-11-28T07:47:03.919Z,0.4
2015-11-28T07:48:04.970Z,0.5
2015-11-28T07:49:06.269Z,0.4
2015-11-28T07:50:07.584Z,0.4
2015-11-28T07:51:08.900Z,0.4
2015-11-28T07:52:09.996Z,0.4
2015-11-28T07:53:10.999Z,0.4
2015-11-28T07:54:12.377Z,0.3
2015-11-28T07:55:14.130Z,0.3
2015-11-28T07:58:17.543Z,0.2
2015-11-28T07:59:18.842Z,0.1
2015-11-28T08:01:21.457Z,0.1
2015-11-28T08:03:23.589Z,0
2015-11-28T08:04:24.420Z,0.1
2015-11-28T08:05:26.188Z,0.1
2015-11-28T08:06:26.972Z,0.1
2015-11-28T08:07:27.787Z,0.1
2015-11-28T08:08:28.587Z,0.2
2015-11-28T08:10:30.154Z,0.3
2015-11-28T08:12:31.736Z,0.5
2015-11-28T08:16:35.171Z,0.7
2015-11-28T08:19:36.272Z,0.8
2015-11-28T08:20:36.555Z,0.8
2015-11-28T08:21:36.839Z,0.8
2015-11-28T08:22:37.109Z,0.8
2015-11-28T08:23:37.424Z,0.9
2015-11-28T08:24:37.724Z,0.9
2015-11-28T08:25:39.508Z,0.9
2015-11-28T08:26:39.258Z,0.9
2015-11-28T08:27:40.449Z,0.9
2015-11-28T08:28:38.811Z,0.9
2015-11-28T08:29:38.564Z,0.9
2015-11-28T08:30:39.738Z,0.9
2015-11-28T08:31:38.100Z,0.9
2015-11-28T08:32:37.337Z,0.9
2015-11-28T08:33:36.842Z,0.9
2015-11-28T08:34:36.420Z,0.9
2015-11-28T08:35:38.190Z,0.9
2015-11-28T08:36:37.707Z,0.9
2015-11-28T08:38:39.760Z,0.9
2015-11-28T08:41:34.503Z,0.9
2015-11-28T08:42:33.740Z,0.9
2015-11-28T08:43:32.976Z,0.9
2015-11-28T08:44:32.292Z,0.9
2015-11-28T08:45:34.060Z,0.9
2015-11-28T08:46:33.328Z,0.9
2015-11-28T08:48:34.849Z,1
2015-11-28T08:49:31.086Z,1
2015-11-28T08:51:29.576Z,1
2015-11-28T08:53:30.597Z,1
2015-11-28T08:54:26.631Z,1
2015-11-28T08:55:28.384Z,1
2015-11-28T08:56:27.384Z,1
2015-11-28T08:57:26.374Z,1
2015-11-28T08:58:25.392Z,1
2015-11-28T08:59:24.363Z,1
2015-11-28T09:00:23.365Z,1.1
2015-11-28T09:02:24.138Z,1.1
2015-11-28T09:03:19.841Z,1
2015-11-28T09:04:18.642Z,1
2015-11-28T09:05:20.394Z,1
2015-11-28T09:07:20.900Z,1.1
2015-11-28T09:08:16.622Z,1.1
2015-11-28T09:09:15.375Z,1.1
2015-11-28T09:10:14.093Z,1.1
2015-11-28T09:11:12.848Z,1.1
2015-11-28T09:12:11.586Z,1.1
2015-11-28T09:13:10.339Z,1.1
2015-11-28T09:14:12.169Z,1.1
2015-11-28T09:15:10.906Z,1.1
2015-11-28T09:16:09.628Z,1.1
2015-11-28T09:18:07.116Z,1.1
2015-11-28T09:19:05.838Z,1.1
2015-11-28T09:20:04.591Z,1.1
2015-11-28T09:21:03.313Z,1.2
2015-11-28T09:22:02.050Z,1.2
2015-11-28T09:23:01.066Z,1.1
2015-11-28T09:24:00.102Z,1.1
2015-11-28T09:25:01.871Z,1.1
2015-11-28T09:27:02.891Z,1.1
2015-11-28T09:27:58.879Z,1.2
2015-11-28T09:29:57.102Z,1.2
2015-11-28T09:30:56.355Z,1.2
2015-11-28T09:32:54.892Z,1.1
2015-11-28T09:33:54.207Z,1.2
2015-11-28T09:34:55.945Z,1.2
2015-11-28T09:35:55.181Z,1.2
2015-11-28T09:36:54.447Z,1.2
2015-11-28T09:37:53.702Z,1.2
2015-11-28T09:38:52.970Z,1.2
2015-11-28T09:39:55.239Z,1.2
2015-11-28T09:40:51.476Z,1.2
2015-11-28T09:41:50.711Z,1.2
2015-11-28T09:42:52.997Z,1.3
2015-11-28T09:43:49.262Z,1.3
2015-11-28T09:44:51.030Z,1.3
2015-11-28T09:45:50.520Z,1.3
2015-11-28T09:46:53.086Z,1.3
2015-11-28T09:47:49.542Z,1.3
2015-11-28T09:48:49.058Z,1.3
2015-11-28T09:49:48.810Z,1.3
2015-11-28T09:50:48.578Z,1.3
2015-11-28T09:51:48.346Z,1.3
2015-11-28T09:52:48.115Z,1.3
2015-11-28T09:53:49.371Z,1.3
2015-11-28T09:54:49.702Z,1.3
2015-11-28T09:55:49.454Z,1.3
2015-11-28T09:56:50.894Z,1.3
2015-11-28T09:57:49.504Z,1.3
2015-11-28T09:58:49.802Z,1.4
2015-11-28T09:59:50.055Z,1.4
2015-11-28T10:00:50.607Z,1.4
2015-11-28T10:01:51.392Z,1.4
2015-11-28T10:02:52.191Z,1.4
2015-11-28T10:03:53.037Z,1.4
2015-11-28T10:04:54.790Z,1.4
2015-11-28T10:05:56.106Z,1.4
2015-11-28T10:06:57.406Z,1.4
2015-11-28T10:09:00.019Z,1.4
2015-11-28T10:10:01.319Z,1.4
2015-11-28T10:11:02.634Z,1.5
2015-11-28T10:12:03.934Z,1.5
2015-11-28T10:13:05.750Z,1.5
2015-11-28T10:14:07.611Z,1.5
2015-11-28T10:15:09.381Z,1.5
2015-11-28T10:16:11.196Z,1.5
2015-11-28T10:17:13.027Z,1.5
2015-11-28T10:18:14.826Z,1.5
2015-11-28T10:19:16.657Z,1.5
2015-11-28T10:20:18.473Z,1.5
2015-11-28T10:21:20.288Z,1.5
2015-11-28T10:22:22.118Z,1.5
2015-11-28T10:23:23.918Z,1.5
2015-11-28T10:24:25.796Z,1.6
2015-11-28T10:25:27.580Z,1.5
2015-11-28T10:26:29.364Z,1.5
2015-11-28T10:27:31.476Z,1.5
2015-11-28T10:28:33.259Z,1.5
2015-11-28T10:29:35.326Z,1.5
2015-11-28T10:30:37.641Z,1.6
2015-11-28T10:31:39.723Z,1.6
2015-11-28T10:32:41.787Z,1.6
2015-11-28T10:33:43.884Z,1.5
2015-11-28T10:34:46.262Z,1.5
2015-11-28T10:35:48.014Z,1.6
2015-11-28T10:37:52.675Z,1.6
2015-11-28T10:38:55.007Z,1.6
2015-11-28T10:39:57.337Z,1.6
2015-11-28T10:40:59.668Z,1.6
2015-11-28T10:42:02.000Z,1.6
2015-11-28T10:43:04.331Z,1.6
2015-11-28T10:44:06.677Z,1.6
2015-11-28T10:45:05.209Z,1.6
2015-11-28T10:46:06.962Z,1.6
2015-11-28T10:47:05.699Z,1.6
2015-11-28T10:48:04.436Z,1.6
2015-11-28T10:49:02.924Z,1.6
2015-11-28T10:50:01.395Z,1.6
2015-11-28T10:53:55.844Z,1.7
2015-11-28T10:54:54.407Z,1.6
2015-11-28T10:56:54.882Z,1.6
2015-11-28T10:57:53.651Z,1.7
2015-11-28T10:58:52.373Z,1.7
2015-11-28T10:59:51.110Z,1.7
2015-11-28T11:00:49.846Z,1.7
2015-11-28T11:02:47.321Z,1.7
2015-11-28T11:03:46.074Z,1.7
2015-11-28T11:04:44.855Z,1.7
2015-11-28T11:05:46.609Z,1.7
2015-11-28T11:06:45.344Z,1.7
2015-11-28T11:08:42.851Z,1.7
2015-11-28T11:09:41.559Z,1.7
2015-11-28T11:10:40.293Z,1.7
2015-11-28T11:12:37.783Z,1.7
2015-11-28T11:13:36.519Z,1.7
2015-11-28T11:14:35.303Z,1.7
2015-11-28T11:15:37.088Z,1.7
2015-11-28T11:16:36.075Z,1.8
2015-11-28T11:17:35.080Z,1.7
2015-11-28T11:18:34.064Z,1.7
2015-11-28T11:19:33.067Z,1.7
2015-11-28T11:20:32.304Z,1.7
2015-11-28T11:21:31.291Z,1.7
2015-11-28T11:22:30.368Z,1.7
2015-11-28T11:23:29.705Z,1.8
2015-11-28T11:24:28.961Z,1.8
2015-11-28T11:25:30.523Z,1.7
2015-11-28T11:26:29.695Z,1.8
2015-11-28T11:27:28.979Z,1.8
2015-11-28T11:29:29.907Z,1.8
2015-11-28T11:30:25.940Z,1.8
2015-11-28T11:31:24.896Z,1.8
2015-11-28T11:32:23.868Z,1.8
2015-11-28T11:34:21.935Z,1.8
2015-11-28T11:35:23.688Z,1.9
2015-11-28T11:37:22.180Z,1.9
2015-11-28T11:38:21.133Z,1.9
2015-11-28T11:40:22.686Z,1.9
2015-11-28T11:43:17.147Z,1.8
2015-11-28T11:44:16.448Z,1.8
2015-11-28T11:45:18.201Z,1.9
2015-11-28T11:46:17.201Z,1.9
2015-11-28T11:47:16.189Z,1.9
2015-11-28T11:48:15.177Z,1.8
2015-11-28T11:49:14.194Z,1.8
2015-11-28T11:50:13.166Z,1.8
2015-11-28T11:51:12.341Z,1.8
2015-11-28T11:52:11.155Z,1.8
2015-11-28T11:53:10.158Z,1.9
2015-11-28T11:54:09.208Z,1.9
2015-11-28T11:55:10.993Z,1.8
2015-11-28T11:57:09.231Z,1.8
2015-11-28T11:58:08.218Z,1.8
2015-11-28T11:59:07.237Z,1.8
2015-11-28T12:00:06.474Z,1.9
2015-11-28T12:02:07.464Z,1.8
2015-11-28T12:04:03.031Z,1.8
2015-11-28T12:05:04.753Z,1.8
2015-11-28T12:06:04.006Z,1.8
2015-11-28T12:07:03.273Z,1.8
2015-11-28T12:08:02.495Z,1.7
2015-11-28T12:09:01.779Z,1.8
2015-11-28T12:10:01.048Z,1.7
2015-11-28T12:11:03.302Z,1.8
2015-11-28T12:11:59.536Z,1.8
2015-11-28T12:12:58.775Z,1.7
2015-11-28T12:14:01.136Z,1.8
2015-11-28T12:15:00.061Z,1.8
2015-11-28T12:15:59.079Z,1.8
2015-11-28T12:16:58.316Z,1.7
2015-11-28T12:17:57.570Z,1.7
2015-11-28T12:18:56.836Z,1.8
2015-11-28T12:19:56.075Z,1.7
2015-11-28T12:20:55.343Z,1.8
2015-11-28T12:21:54.596Z,1.7
2015-11-28T12:22:53.833Z,1.8
2015-11-28T12:23:53.164Z,1.7
2015-11-28T12:25:54.154Z,1.7
2015-11-28T12:27:52.690Z,1.7
2015-11-28T12:28:51.912Z,1.7
2015-11-28T12:29:51.165Z,1.7
2015-11-28T12:30:50.668Z,1.7
2015-11-28T12:31:50.154Z,1.7
2015-11-28T12:33:49.004Z,1.7
2015-11-28T12:34:50.740Z,1.7
2015-11-28T12:35:50.259Z,1.7
2015-11-28T12:36:51.433Z,1.7
2015-11-28T12:38:52.329Z,1.7
2015-11-28T12:39:49.048Z,1.7
2015-11-28T12:40:48.834Z,1.7
2015-11-28T12:41:48.587Z,1.6
2015-11-28T12:42:48.356Z,1.6
2015-11-28T12:43:48.170Z,1.6
2015-11-28T12:44:49.923Z,1.6
2015-11-28T12:45:49.942Z,1.6
2015-11-28T12:46:49.708Z,1.6
2015-11-28T12:47:49.744Z,1.7
2015-11-28T12:48:50.012Z,1.6
2015-11-28T12:49:50.296Z,1.7
2015-11-28T12:50:50.596Z,1.7
2015-11-28T12:51:50.849Z,1.6
2015-11-28T12:52:51.133Z,1.7
2015-11-28T12:53:51.479Z,1.7
2015-11-28T12:54:53.216Z,1.7
2015-11-28T12:56:53.783Z,1.7
2015-11-28T12:57:54.144Z,1.7
2015-11-28T12:58:54.325Z,1.7
2015-11-28T12:59:54.590Z,1.7
2015-11-28T13:00:54.879Z,1.7
2015-11-28T13:01:55.122Z,1.7
2015-11-28T13:02:55.416Z,1.7
2015-11-28T13:03:55.728Z,1.8
2015-11-28T13:04:57.493Z,1.8
2015-11-28T13:05:57.774Z,1.8
2015-11-28T13:06:58.039Z,1.8
2015-11-28T13:07:58.306Z,1.8
2015-11-28T13:08:58.587Z,1.8
2015-11-28T13:09:58.856Z,1.8
2015-11-28T13:10:59.154Z,1.9
2015-11-28T13:11:59.390Z,1.9
2015-11-28T13:12:59.923Z,1.9
2015-11-28T13:14:00.535Z,1.9
2015-11-28T13:15:02.272Z,1.9
2015-11-28T13:16:03.070Z,1.9
2015-11-28T13:17:03.870Z,1.9
2015-11-28T13:18:04.638Z,1.9
2015-11-28T13:19:05.438Z,1.9
2015-11-28T13:20:06.222Z,2
2015-11-28T13:21:07.022Z,2
2015-11-28T13:22:07.805Z,2
2015-11-28T13:23:08.589Z,2
2015-11-28T13:24:09.435Z,2
2015-11-28T13:26:12.002Z,2.1
2015-11-28T13:27:12.770Z,2.1
2015-11-28T13:29:14.530Z,2.1
2015-11-28T13:30:15.142Z,2.1
2015-11-28T13:31:15.942Z,2.1
2015-11-28T13:32:16.742Z,2.1
2015-11-28T13:33:17.495Z,2.1
2015-11-28T13:34:18.356Z,2.1
2015-11-28T13:35:20.109Z,2.1
2015-11-28T13:37:21.694Z,2.2
2015-11-28T13:38:22.477Z,2.2
2015-11-28T13:39:23.512Z,2.2
2015-11-28T13:40:24.295Z,2.2
2015-11-28T13:41:25.344Z,2.2
2015-11-28T13:42:26.410Z,2.2
2015-11-28T13:43:27.444Z,2.2
2015-11-28T13:44:28.806Z,2.3
2015-11-28T13:45:30.558Z,2.3
2015-11-28T13:47:33.158Z,2.3
2015-11-28T13:49:35.241Z,2.3
2015-11-28T13:51:37.590Z,2.3
2015-11-28T13:52:38.624Z,2.4
2015-11-28T13:53:39.705Z,2.4
2015-11-28T13:54:40.770Z,2.4
2015-11-28T13:55:42.538Z,2.4
2015-11-28T13:56:43.588Z,2.4
2015-11-28T13:57:44.903Z,2.4
2015-11-28T13:58:46.188Z,2.4
2015-11-28T13:59:47.518Z,2.5
2015-11-28T14:01:50.086Z,2.5
2015-11-28T14:02:51.386Z,2.5
2015-11-28T14:03:52.685Z,2.5
2015-11-28T14:04:54.047Z,2.5
2015-11-28T14:05:55.784Z,2.5
2015-11-28T14:06:57.099Z,2.6
2015-11-28T14:07:58.415Z,2.6
2015-11-28T14:08:59.731Z,2.6
2015-11-28T14:10:00.998Z,2.6
2015-11-28T14:11:02.298Z,2.6
2015-11-28T14:12:03.597Z,2.6
2015-11-28T14:13:04.928Z,2.6
2015-11-28T14:15:07.558Z,2.7
2015-11-28T14:16:09.374Z,2.7
2015-11-28T14:18:11.941Z,2.7
2015-11-28T14:20:14.528Z,2.7
2015-11-28T14:21:15.812Z,2.7
2015-11-28T14:22:17.110Z,2.8
2015-11-28T14:23:18.426Z,2.8
2015-11-28T14:25:21.088Z,2.8
2015-11-28T14:26:22.825Z,2.8
2015-11-28T14:27:24.124Z,2.8
2015-11-28T14:28:25.440Z,2.8
2015-11-28T14:30:28.024Z,2.9
2015-11-28T14:31:29.339Z,2.9
2015-11-28T14:32:30.888Z,2.9
2015-11-28T14:33:32.453Z,2.9
2015-11-28T14:35:35.334Z,2.9
2015-11-28T14:36:37.086Z,2.9
2015-11-28T14:37:38.651Z,2.9
2015-11-28T14:38:40.201Z,2.9
2015-11-28T14:39:41.766Z,3
2015-11-28T14:41:44.616Z,3
2015-11-28T14:42:45.915Z,3.1
2015-11-28T14:43:47.214Z,3.1
2015-11-28T14:45:49.861Z,3.1
2015-11-28T14:46:51.644Z,3.1
2015-11-28T14:47:53.178Z,3.1
2015-11-28T14:48:54.728Z,3.1
2015-11-28T14:49:56.278Z,3.1
2015-11-28T14:50:57.858Z,3.1
2015-11-28T14:51:59.408Z,3.1
2015-11-28T14:53:00.942Z,3.1
2015-11-28T14:54:02.507Z,3.2
2015-11-28T14:55:04.087Z,3.1
2015-11-28T14:56:05.700Z,3.2
2015-11-28T14:57:07.421Z,3.2
2015-11-28T14:58:08.987Z,3.2
2015-11-28T14:59:10.551Z,3.2
2015-11-28T15:00:11.835Z,3.1
2015-11-28T15:01:13.387Z,3.2
2015-11-28T15:02:14.688Z,3.2
2015-11-28T15:04:17.287Z,3.2
2015-11-28T15:05:18.836Z,3.2
2015-11-28T15:06:20.198Z,3.2
2015-11-28T15:07:21.951Z,3.1
2015-11-28T15:08:23.500Z,3.1
2015-11-28T15:09:24.800Z,3.2
2015-11-28T15:10:26.100Z,3.1
2015-11-28T15:11:27.399Z,3.1
2015-11-28T15:12:28.699Z,3.2
2015-11-28T15:13:29.998Z,3.1
2015-11-28T15:14:31.298Z,3.1
2015-11-28T15:15:32.597Z,3.1
2015-11-28T15:16:33.944Z,3.2
2015-11-28T15:17:35.697Z,3.1
2015-11-28T15:18:36.996Z,3.1
2015-11-28T15:19:38.296Z,3.1
2015-11-28T15:21:41.144Z,3.1
2015-11-28T15:22:42.444Z,3.1
2015-11-28T15:23:43.744Z,3.1
2015-11-28T15:24:45.043Z,3.1
2015-11-28T15:25:46.343Z,3.1
2015-11-28T15:26:47.704Z,3.1
2015-11-28T15:27:49.458Z,3.1
2015-11-28T15:28:51.024Z,3.1
2015-11-28T15:29:52.557Z,3.1
2015-11-28T15:30:54.123Z,3.1
2015-11-28T15:32:57.237Z,3.1
2015-11-28T15:33:58.537Z,3.1
2015-11-28T15:35:00.086Z,3.1
2015-11-28T15:36:01.636Z,3.1
2015-11-28T15:37:02.998Z,3
2015-11-28T15:38:04.750Z,3.1
2015-11-28T15:39:06.050Z,3
2015-11-28T15:41:08.915Z,3
2015-11-28T15:43:11.764Z,3
2015-11-28T15:44:13.313Z,3
2015-11-28T15:45:14.864Z,3
2015-11-28T15:46:16.416Z,3
2015-11-28T15:47:18.027Z,3
2015-11-28T15:48:19.796Z,3
2015-11-28T15:49:21.345Z,3
2015-11-28T15:50:22.895Z,3
2015-11-28T15:51:24.460Z,3
2015-11-28T15:52:26.260Z,3
2015-11-28T15:53:27.825Z,3
2015-11-28T15:54:29.375Z,3
2015-11-28T15:55:31.191Z,3
2015-11-28T15:56:33.005Z,3
2015-11-28T15:57:34.866Z,3
2015-11-28T15:58:36.619Z,3
2015-11-28T15:59:38.435Z,3
2015-11-28T16:00:40.250Z,3
2015-11-28T16:01:42.049Z,3
2015-11-28T16:02:43.865Z,3
2015-11-28T16:04:47.495Z,3